Darstellungsparameter: Aktuell verwendete Einstellungen:
Skalierung der Graphiken ... ?
xyx+y,   Skalierungsfaktor:      Skalierung: Modus: x, Faktor: 1
Darstellungszeitraum ... ?
Vom - - bis: - -   Zeitraum: 17.05.2021 - 17.05.2021
Min/Max/Avg-Anzeige ... ?
Zeige MMA aktuell
Zeige MMA Monat
Zeige MMA alles
Zeige --A aktuell
Zeige --A Monat
Zeige --A alles
Keine MMA-Anzeige
MMA:
Keine MMA-Graphiken
MMA-Basis: 17.05.2021 - 17.05.2021
Quicknavigation für Darstellung... ?
Tage:      1T, 2T, 3T, 5T -1T -2T -3T -5T +1T +2T +3T +5T
Wochen: 1W, 2W, 3W -1W -2W -3W +1W +2W +3W
Monate: 1M, 3M, 6M -1M -3M -6M +1M +3M +6M
Jahre:    1J, 3J, 5J, 10J -1J -3J -5J -10J +1J +3J +5J +10J
Nutze für die Darstellung ... ?
Originaldaten oder Mittelwerte auf ...
Stundenbasis Tagesbasis Wochenbasis
Monatsbasis Jahresbasis      Datenbasis: Original-Daten
Darstellen als:
Statistik (Auto) Statistik J:M      Darstellung:
Zur Graphik,    zurück zur Übersicht aller Sensoren.
 
Tabellarische Datenbersicht: ?
 
Sensor: Nr:Datum:Temp:Feuchte:
Aussen-T/F 1 17-05-2021 00:06:17 8.5 C 46 %
2 17-05-2021 00:16:17 8.6 C 46 %
3 17-05-2021 00:26:17 8.5 C 46 %
4 17-05-2021 00:36:17 8.5 C 46 %
5 17-05-2021 00:46:17 8.4 C 46 %
6 17-05-2021 00:56:17 8.4 C 46 %
7 17-05-2021 01:06:17 8.3 C 46 %
8 17-05-2021 01:16:17 8.1 C 46 %
9 17-05-2021 01:26:17 8.1 C 46 %
10 17-05-2021 01:36:17 8.3 C 46 %
11 17-05-2021 01:46:17 8.4 C 46 %
12 17-05-2021 01:56:17 8.6 C 46 %
13 17-05-2021 02:06:17 8.6 C 46 %
14 17-05-2021 02:16:17 8.7 C 46 %
15 17-05-2021 02:26:17 8.8 C 46 %
16 17-05-2021 02:36:17 8.8 C 46 %
17 17-05-2021 02:46:17 8.8 C 46 %
18 17-05-2021 02:56:17 8.7 C 46 %
19 17-05-2021 03:06:17 8.8 C 46 %
20 17-05-2021 03:16:17 9 C 46 %
21 17-05-2021 03:26:17 9 C 46 %
22 17-05-2021 03:36:17 8.9 C 47 %
23 17-05-2021 03:46:17 9 C 46 %
24 17-05-2021 03:56:17 8.9 C 47 %
25 17-05-2021 04:06:17 8.9 C 47 %
Sensor: Nr:Datum:Temp:Feuchte:
Aussen-T/F 26 17-05-2021 04:16:17 9 C 46 %
27 17-05-2021 04:26:17 9 C 46 %
28 17-05-2021 04:36:17 9.1 C 46 %
29 17-05-2021 04:46:18 9.3 C 46 %
30 17-05-2021 04:56:18 9.2 C 46 %
31 17-05-2021 05:06:17 9.4 C 45 %
32 17-05-2021 05:16:17 9.2 C 45 %
33 17-05-2021 05:26:17 9 C 46 %
34 17-05-2021 05:36:17 8.8 C 47 %
35 17-05-2021 05:46:17 8.7 C 47 %
36 17-05-2021 05:56:17 8.9 C 48 %
37 17-05-2021 06:06:18 8.9 C 48 %
38 17-05-2021 06:16:18 9.3 C 46 %
39 17-05-2021 06:26:18 9.4 C 46 %
40 17-05-2021 06:36:17 9.7 C 44 %
41 17-05-2021 06:46:17 9.7 C 45 %
42 17-05-2021 06:56:17 9.3 C 44 %
43 17-05-2021 07:06:17 9.1 C 45 %
44 17-05-2021 07:16:17 9.3 C 45 %
45 17-05-2021 07:26:17 9.6 C 45 %
46 17-05-2021 07:36:17 9.8 C 45 %
47 17-05-2021 07:46:17 10.5 C 42 %
48 17-05-2021 07:56:17 11.2 C 39 %
49 17-05-2021 08:06:17 11.8 C 39 %
50 17-05-2021 08:16:17 11.5 C 38 %
Sensor: Nr:Datum:Temp:Feuchte:
Aussen-T/F 51 17-05-2021 08:26:17 11.7 C 38 %
52 17-05-2021 08:36:17 12.1 C 37 %
53 17-05-2021 08:46:17 12.3 C 36 %
54 17-05-2021 08:56:17 12.4 C 36 %
55 17-05-2021 09:06:17 12.3 C 36 %
56 17-05-2021 09:16:17 12.7 C 36 %
57 17-05-2021 09:26:17 12.7 C 36 %
58 17-05-2021 09:36:17 13.1 C 35 %
59 17-05-2021 09:46:17 13.3 C 35 %
60 17-05-2021 09:56:17 13.3 C 35 %
61 17-05-2021 10:06:17 12.1 C 36 %
62 17-05-2021 10:16:17 12.9 C 36 %
63 17-05-2021 10:26:17 11.5 C 38 %
64 17-05-2021 10:36:17 10.5 C 42 %
65 17-05-2021 10:46:17 10.4 C 43 %
66 17-05-2021 10:56:17 10.4 C 43 %
67 17-05-2021 11:06:17 10.9 C 43 %
68 17-05-2021 11:16:17 13.2 C 39 %
69 17-05-2021 11:26:17 11.8 C 40 %
70 17-05-2021 11:36:17 11.5 C 40 %
71 17-05-2021 11:46:17 11.9 C 40 %
72 17-05-2021 11:56:17 12.1 C 37 %
73 17-05-2021 12:06:17 15.6 C 34 %
74 17-05-2021 12:16:17 14.7 C 34 %
75 17-05-2021 12:26:17 14.1 C 34 %
Sensor: Nr:Datum:Temp:Feuchte:
Aussen-T/F 76 17-05-2021 12:36:17 14.2 C 35 %
77 17-05-2021 12:46:17 14.4 C 35 %
78 17-05-2021 12:56:17 14.8 C 34 %
79 17-05-2021 13:06:17 15.1 C 32 %
80 17-05-2021 13:16:17 15.6 C 32 %
81 17-05-2021 13:26:17 15.8 C 31 %
82 17-05-2021 13:36:17 16 C 31 %
83 17-05-2021 13:46:17 13.8 C 34 %
84 17-05-2021 13:56:17 16.6 C 32 %
85 17-05-2021 14:06:17 15.1 C 32 %
86 17-05-2021 14:16:17 13.8 C 36 %
87 17-05-2021 14:26:17 12.4 C 38 %
88 17-05-2021 14:36:17 14.3 C 35 %
89 17-05-2021 14:46:17 12.5 C 37 %
90 17-05-2021 14:56:17 16 C 32 %
91 17-05-2021 15:06:17 14.7 C 33 %
92 17-05-2021 15:16:17 15.8 C 33 %
93 17-05-2021 15:26:17 16.2 C 32 %
94 17-05-2021 15:36:17 15.9 C 31 %
95 17-05-2021 15:46:17 19.3 C 28 %
96 17-05-2021 15:56:17 19.2 C 28 %
97 17-05-2021 16:06:17 19.3 C 28 %
98 17-05-2021 16:16:17 18.1 C 27 %
99 17-05-2021 16:26:18 16 C 30 %
100 17-05-2021 16:36:17 16.8 C 30 %
Sensor: Nr:Datum:Temp:Feuchte:
Aussen-T/F 101 17-05-2021 16:46:17 17.5 C 28 %
102 17-05-2021 16:56:17 16.3 C 30 %
103 17-05-2021 17:06:17 15.6 C 30 %
104 17-05-2021 17:16:17 14.4 C 32 %
105 17-05-2021 17:26:17 15.1 C 32 %
106 17-05-2021 17:36:17 17.4 C 30 %
107 17-05-2021 17:46:17 18.4 C 28 %
108 17-05-2021 17:56:17 16.5 C 29 %
109 17-05-2021 18:06:17 16.1 C 28 %
110 17-05-2021 18:16:17 15.6 C 30 %
111 17-05-2021 18:26:18 15.6 C 30 %
112 17-05-2021 18:36:17 15.2 C 30 %
113 17-05-2021 18:46:17 15.4 C 30 %
114 17-05-2021 18:56:17 15.2 C 30 %
115 17-05-2021 19:06:17 14.7 C 31 %
116 17-05-2021 19:16:17 14.4 C 31 %
117 17-05-2021 19:26:17 13.9 C 32 %
118 17-05-2021 19:36:17 14.7 C 31 %
119 17-05-2021 19:46:17 14.7 C 31 %
120 17-05-2021 19:56:17 14.7 C 31 %
121 17-05-2021 20:06:17 14.5 C 31 %
122 17-05-2021 20:16:17 14.1 C 32 %
123 17-05-2021 20:26:17 13.8 C 33 %
124 17-05-2021 20:36:17 13.8 C 33 %
125 17-05-2021 20:46:17 13.7 C 33 %
Sensor: Nr:Datum:Temp:Feuchte:
Aussen-T/F 126 17-05-2021 20:56:17 13.5 C 33 %
127 17-05-2021 21:06:17 13.5 C 33 %
128 17-05-2021 21:16:17 13.1 C 34 %
129 17-05-2021 21:26:17 12.9 C 35 %
130 17-05-2021 21:36:17 12.7 C 35 %
131 17-05-2021 21:46:17 12.5 C 35 %
132 17-05-2021 21:56:17 12.4 C 35 %
133 17-05-2021 22:06:17 12.3 C 35 %
134 17-05-2021 22:16:17 12 C 36 %
135 17-05-2021 22:26:17 11.6 C 38 %
136 17-05-2021 22:36:17 11.6 C 38 %
137 17-05-2021 22:46:17 11.3 C 39 %
138 17-05-2021 22:56:17 10.7 C 41 %
139 17-05-2021 23:06:17 10.9 C 41 %
140 17-05-2021 23:16:17 10.9 C 41 %
141 17-05-2021 23:26:17 11.1 C 40 %
142 17-05-2021 23:36:17 11.2 C 40 %
143 17-05-2021 23:46:17 11.4 C 40 %
144 17-05-2021 23:56:17 11.3 C 39 %
Sensor: Nr:Datum:Temp:Feuchte:
G-T/H 1 17-05-2021 00:06:17 14.2 C 66 %
2 17-05-2021 00:16:17 14.2 C 66 %
3 17-05-2021 00:26:17 14.2 C 66 %
4 17-05-2021 00:36:17 14.2 C 66 %
5 17-05-2021 00:46:17 14.2 C 66 %
6 17-05-2021 00:56:17 14.2 C 66 %
7 17-05-2021 01:06:17 14.2 C 66 %
8 17-05-2021 01:16:17 14.2 C 66 %
9 17-05-2021 01:26:17 14.1 C 66 %
10 17-05-2021 01:36:17 14.1 C 66 %
11 17-05-2021 01:46:17 14.1 C 66 %
12 17-05-2021 01:56:17 14.1 C 66 %
13 17-05-2021 02:06:17 14.1 C 66 %
14 17-05-2021 02:16:17 14.1 C 66 %
15 17-05-2021 02:26:17 14.1 C 66 %
16 17-05-2021 02:36:17 14.1 C 66 %
17 17-05-2021 02:46:17 14.1 C 66 %
18 17-05-2021 02:56:17 14.1 C 66 %
19 17-05-2021 03:06:17 14 C 66 %
20 17-05-2021 03:16:17 14 C 66 %
21 17-05-2021 03:26:17 14 C 66 %
22 17-05-2021 03:36:17 14 C 66 %
23 17-05-2021 03:46:17 14 C 66 %
24 17-05-2021 03:56:17 14 C 66 %
25 17-05-2021 04:06:17 14 C 66 %
Sensor: Nr:Datum:Temp:Feuchte:
G-T/H 26 17-05-2021 04:16:17 14 C 66 %
27 17-05-2021 04:26:17 13.9 C 67 %
28 17-05-2021 04:36:17 13.9 C 67 %
29 17-05-2021 04:46:18 13.9 C 67 %
30 17-05-2021 04:56:18 13.9 C 67 %
31 17-05-2021 05:06:17 13.9 C 67 %
32 17-05-2021 05:16:17 13.9 C 67 %
33 17-05-2021 05:26:17 13.9 C 67 %
34 17-05-2021 05:36:17 13.8 C 67 %
35 17-05-2021 05:46:17 13.8 C 67 %
36 17-05-2021 05:56:17 13.8 C 67 %
37 17-05-2021 06:06:18 13.8 C 67 %
38 17-05-2021 06:16:18 13.8 C 67 %
39 17-05-2021 06:26:18 13.8 C 67 %
40 17-05-2021 06:36:17 13.8 C 67 %
41 17-05-2021 06:46:17 13.8 C 67 %
42 17-05-2021 06:56:17 13.8 C 67 %
43 17-05-2021 07:06:17 13.7 C 67 %
44 17-05-2021 07:16:17 13.7 C 67 %
45 17-05-2021 07:26:17 13.7 C 67 %
46 17-05-2021 07:36:17 13.7 C 67 %
47 17-05-2021 07:46:17 13.7 C 67 %
48 17-05-2021 07:56:17 13.7 C 67 %
49 17-05-2021 08:06:17 13.7 C 67 %
50 17-05-2021 08:16:17 13.7 C 67 %
Sensor: Nr:Datum:Temp:Feuchte:
G-T/H 51 17-05-2021 08:26:17 13.7 C 67 %
52 17-05-2021 08:36:17 13.7 C 67 %
53 17-05-2021 08:46:17 13.7 C 67 %
54 17-05-2021 08:56:17 13.7 C 67 %
55 17-05-2021 09:06:17 13.7 C 67 %
56 17-05-2021 09:16:17 13.7 C 67 %
57 17-05-2021 09:26:17 13.7 C 67 %
58 17-05-2021 09:36:17 13.7 C 67 %
59 17-05-2021 09:46:17 13.7 C 67 %
60 17-05-2021 09:56:17 13.7 C 67 %
61 17-05-2021 10:06:17 13.7 C 67 %
62 17-05-2021 10:16:17 13.7 C 67 %
63 17-05-2021 10:26:17 13.7 C 67 %
64 17-05-2021 10:36:17 13.7 C 67 %
65 17-05-2021 10:46:17 13.7 C 67 %
66 17-05-2021 10:56:17 13.7 C 67 %
67 17-05-2021 11:06:17 13.7 C 67 %
68 17-05-2021 11:16:17 13.7 C 67 %
69 17-05-2021 11:26:17 13.7 C 67 %
70 17-05-2021 11:36:17 13.7 C 67 %
71 17-05-2021 11:46:17 13.7 C 67 %
72 17-05-2021 11:56:17 13.7 C 67 %
73 17-05-2021 12:06:17 13.7 C 67 %
74 17-05-2021 12:16:17 13.7 C 67 %
75 17-05-2021 12:26:17 13.7 C 67 %
Sensor: Nr:Datum:Temp:Feuchte:
G-T/H 76 17-05-2021 12:36:17 13.7 C 67 %
77 17-05-2021 12:46:17 13.7 C 67 %
78 17-05-2021 12:56:17 13.8 C 67 %
79 17-05-2021 13:06:17 13.8 C 67 %
80 17-05-2021 13:16:17 13.8 C 67 %
81 17-05-2021 13:26:17 13.8 C 67 %
82 17-05-2021 13:36:17 13.8 C 67 %
83 17-05-2021 13:46:17 13.8 C 67 %
84 17-05-2021 13:56:17 13.8 C 67 %
85 17-05-2021 14:06:17 13.9 C 67 %
86 17-05-2021 14:16:17 13.9 C 67 %
87 17-05-2021 14:26:17 13.9 C 67 %
88 17-05-2021 14:36:17 13.9 C 67 %
89 17-05-2021 14:46:17 13.9 C 67 %
90 17-05-2021 14:56:17 14 C 67 %
91 17-05-2021 15:06:17 14 C 67 %
92 17-05-2021 15:16:17 14 C 67 %
93 17-05-2021 15:26:17 14 C 67 %
94 17-05-2021 15:36:17 14 C 67 %
95 17-05-2021 15:46:17 14 C 67 %
96 17-05-2021 15:56:17 14.1 C 67 %
97 17-05-2021 16:06:17 14.1 C 67 %
98 17-05-2021 16:16:17 14.2 C 67 %
99 17-05-2021 16:26:18 14.2 C 67 %
100 17-05-2021 16:36:17 14.2 C 67 %
Sensor: Nr:Datum:Temp:Feuchte:
G-T/H 101 17-05-2021 16:46:17 14.2 C 67 %
102 17-05-2021 16:56:17 14.2 C 67 %
103 17-05-2021 17:06:17 14.2 C 67 %
104 17-05-2021 17:16:17 14.2 C 67 %
105 17-05-2021 17:26:17 14.3 C 67 %
106 17-05-2021 17:36:17 14.2 C 67 %
107 17-05-2021 17:46:17 14.3 C 67 %
108 17-05-2021 17:56:17 14.3 C 67 %
109 17-05-2021 18:06:17 14.3 C 67 %
110 17-05-2021 18:16:17 14.3 C 67 %
111 17-05-2021 18:26:18 14.3 C 67 %
112 17-05-2021 18:36:17 14.3 C 67 %
113 17-05-2021 18:46:17 14.3 C 67 %
114 17-05-2021 18:56:17 14.4 C 67 %
115 17-05-2021 19:06:17 14.4 C 67 %
116 17-05-2021 19:16:17 14.4 C 67 %
117 17-05-2021 19:26:17 14.4 C 67 %
118 17-05-2021 19:36:17 14.4 C 67 %
119 17-05-2021 19:46:17 14.4 C 67 %
120 17-05-2021 19:56:17 14.4 C 67 %
121 17-05-2021 20:06:17 14.4 C 67 %
122 17-05-2021 20:16:17 14.4 C 67 %
123 17-05-2021 20:26:17 14.4 C 67 %
124 17-05-2021 20:36:17 14.4 C 67 %
125 17-05-2021 20:46:17 14.4 C 67 %
Sensor: Nr:Datum:Temp:Feuchte:
G-T/H 126 17-05-2021 20:56:17 14.4 C 67 %
127 17-05-2021 21:06:17 14.4 C 67 %
128 17-05-2021 21:16:17 14.4 C 67 %
129 17-05-2021 21:26:17 14.4 C 67 %
130 17-05-2021 21:36:17 14.4 C 67 %
131 17-05-2021 21:46:17 14.4 C 67 %
132 17-05-2021 21:56:17 14.4 C 67 %
133 17-05-2021 22:06:17 14.4 C 67 %
134 17-05-2021 22:16:17 14.4 C 67 %
135 17-05-2021 22:26:17 14.4 C 67 %
136 17-05-2021 22:36:17 14.4 C 66 %
137 17-05-2021 22:46:17 14.4 C 66 %
138 17-05-2021 22:56:17 14.4 C 66 %
139 17-05-2021 23:06:17 14.4 C 66 %
140 17-05-2021 23:16:17 14.4 C 66 %
141 17-05-2021 23:26:17 14.4 C 66 %
142 17-05-2021 23:36:17 14.4 C 67 %
143 17-05-2021 23:46:17 14.4 C 67 %
144 17-05-2021 23:56:17 14.4 C 67 %

Legende:
   Min
   Max


Maximal/Minimal-Werte vom 17.05.2021 - 17.05.2021

Sensor Min Max Avg
Temp
(Aussen-T/F)
8.1 °C
17-05-2021  01:16:17
19.3 °C
17-05-2021  15:46:17
12.25 °C
Feuchte
(Aussen-T/F)
27 %
17-05-2021  16:16:17
48 %
17-05-2021  05:56:17
38.13 %
Temp
(G-T/H)
13.7 °C
17-05-2021  07:06:17
14.4 °C
17-05-2021  18:56:17
14.03 °C
Feuchte
(G-T/H)
66 %
17-05-2021  00:06:17
67 %
17-05-2021  04:26:17
66.78 %

Die Daten stammen von einer Davis Vantage Pro 2 Wetter-Station und werden unter Linux mit der Software wview2wettercgi und aufbereitet. Alle Angaben erfolgen ohne Gewähr für ihre Vollständigkeit oder Richtigkeit.
Kontakt: Rainer Krienke krienke@uni-koblenz.de . Meine Webseiten an der Uni Koblenz oder privat.
Version: $Revision: 0.78 $